• Join FlightAware (Why Join?)
  • Login
  • US Flag 
08:09PM EST


 

Airport Tracker/Info


-or-


 

Live Flight TrackerFlight Track Log ✈ EJA929 ✈ 08-Feb-2014 ✈ KMDW - KDTW

Flight Track Log - Related Links

Times and Time Zones

All times are in EST time to prevent confusion due to time zone crossing. See the EJA929 flight status page for this flight to view local times or setup timezone preferences in your user account.

Time Position Orientation Groundspeed Altitude Reporting Facility
EST Latitude Longitude Course Direction KTS MPH feet Rate Location/Type
10:50AM 41.8333 -87.7500 89° East 225 259 3,000  Level Chicago TRACON
10:50AM 41.8336 -87.7136 89° East 213 245 3,900 2,589 Climbing Chicago Center
10:51AM 41.8169 -87.6256 104° East 227 261 7,100 3,073 Climbing Chicago Center
10:52AM 41.8011 -87.5169 101° East 285 328 10,200 2,341 Climbing Chicago Center
10:53AM 41.7900 -87.3881 97° East 346 398 11,900 2,328 Climbing Chicago Center
10:55AM 41.7644 -87.0906 98° East 405 466 17,300 2,689 Climbing Chicago Center
10:56AM 41.7628 -86.9022 91° East 422 486 20,100 1,805 Climbing Chicago Center
10:57AM 41.7653 -86.7356 89° East 443 510 21,000 439 Climbing Chicago Center
10:58AM 41.7664 -86.5706 89° East 488 562 21,000  Level Chicago Center
10:59AM 41.7678 -86.3858 89° East 495 570 21,000  Level Chicago Center
11:02AM 41.8100 -85.9450 83° East 493 567 21,000  Level Cleveland Center
11:02AM 41.8122 -85.7992 89° East 496 571 21,000  Level Chicago Center
11:03AM 41.8156 -85.6150 89° East 491 565 21,000  Level Chicago Center
11:04AM 41.8175 -85.4247 89° East 500 575 21,000  Level Chicago Center
11:05AM 41.8192 -85.2378 89° East 494 568 21,000 -590 Level Chicago Center
11:06AM 41.8214 -85.0519 89° East 493 567 19,800 -1,268 Descending Chicago Center
11:08AM 41.8131 -84.8714 93° East 488 562 18,400 -1,415 Descending Chicago Center
11:09AM 41.7692 -84.7033 109° East 480 552 16,900 -1,804 Descending Chicago Center
11:10AM 41.7669 -84.4653 91° East 464 534 14,100 -2,164 Descending Cleveland Center
11:11AM 41.7828 -84.3528 79° East 444 511 12,500 -1,967 Descending Cleveland Center
11:11AM 41.7900 -84.3033 79° East 445 512 12,100 -968 Descending Cleveland Center
11:11AM 41.7944 -84.2678 80° East 434 499 12,000 -98 Descending Cleveland Center
11:12AM 41.8092 -84.1600 80° East 434 499 12,000 54 Level Cleveland Center
11:13AM 41.8442 -84.0067 73° East 436 502 12,100  Climbing Cleveland Center
11:13AM 41.8661 -83.9672 53° Northeast 431 496 12,000 -86 Descending Cleveland Center
11:14AM 41.9450 -83.8500 48° Northeast 429 494 12,000  Level Cleveland Center
11:15AM 42.0308 -83.7247 47° Northeast 429 494 12,000  Level Cleveland Center
11:16AM 42.0950 -83.6047 54° Northeast 435 501 12,000  Level Cleveland Center
11:17AM 42.1261 -83.4517 75° East 331 381 12,000  Level Cleveland Center
11:18AM 42.1453 -83.3658 73° East 313 360 12,000 -443 Level Cleveland Center
11:19AM 42.1928 -83.2667 57° Northeast 259 298 11,100 -829 Descending Cleveland Center
11:20AM 42.2350 -83.2097 45° Northeast 268 308 10,300 -1,082 Descending Cleveland Center
11:20AM 42.2467 -83.1953 43° Northeast 266 306 10,000 -1,475 Descending Cleveland Center
11:21AM 42.3000 -83.1528 31° Northeast 256 295 8,800 -1,500 Descending Cleveland Center
11:21AM 42.3089 -83.1472 25° Northeast 251 289 8,500 -1,433 Descending Cleveland Center
11:22AM 42.3661 -83.1100 26° Northeast 220 253 7,200 -1,293 Descending Cleveland Center
11:23AM 42.4069 -83.1164 353° North 204 235 6,000 -1,574 Descending Cleveland Center
11:23AM 42.4108 -83.1303 291° West 189 217 5,600 -885 Descending Cleveland Center
11:24AM 42.4183 -83.1794 282° West 190 219 5,100 -590 Descending Cleveland Center
11:24AM 42.4125 -83.1900 233° Southwest 165 190 5,000 -793 Descending Cleveland Center
11:26AM 42.3347 -83.2497 211° Southwest 156 180 3,500 -621 Descending Cleveland Center
11:26AM 42.3389 -83.2458 35° Northeast 172 198 3,800 -879 Climbing Cleveland Center
11:28AM 42.2614 -83.3017 209° Southwest 147 169 1,800 -927 Descending Cleveland Center
11:28AM 42.2642 -83.3025 347° North 156 180 1,900 -800 Climbing Cleveland Center
11:29AM 42.2303 -83.3253 206° Southwest 120 138 1,000 -689 Descending Cleveland Center
11:29AM 42.2289 -83.3281 236° Southwest 145 167 1,200 1,333 Climbing Cleveland Center